Cincinnati, OH

2:57 PM EDT on July 30, 2016 (GMT -0400)
Newport Aquarium | | Change Station

Elev 499 ft 39.09 °N, 84.50 °W | Updated 1 minute ago

Mostly Cloudy
Mostly Cloudy
93.2 °F
Feels Like 95 °F
N
2.0
Wind Variable Wind from SSW
Gusts 2.0 mph

Today
High -- | Low -- °F
--% Chance of Precip.
Yesterday
High -- | Low -- °F
Precip. -- in
Pressure 29.93 in
Visibility 10.0 miles
Clouds Mostly Cloudy 3000 ft
Heat Index 95 °F
Dew Point 65 °F
Humidity 39%
Rainfall 0.00 in
Snow Depth Not available.
6:37 AM 8:51 PM
Waning Crescent, 11% visible
METAR KLUK 301853Z 26009KT 10SM BKN030 30/21 A2994 RMK AO2 SLP135 T03000206
Pressure 29.93 in
Visibility 10.0 miles
Clouds Mostly Cloudy 3000 ft
Heat Index 95 °F
Dew Point 65 °F
Humidity 39%
Rainfall 0.00 in
Snow Depth Not available.
6:37 AM 8:51 PM
Waning Crescent, 11% visible
METAR KLUK 301853Z 26009KT 10SM BKN030 30/21 A2994 RMK AO2 SLP135 T03000206

10-Day Weather Forecast

Almanac

Astronomy

Jul. 30, 2016 Rise Set
Actual Time
Civil Twilight
Nautical Twilight
Astronomical Twilight
Moon
Length of Visible Light
Length of Day
Tomorrow will be .
, % of the Moon is Illuminated

Today's Extremes

State Highs State Lows

Community

WunderPhotos

Upload Photos

1,928,612 photos uploaded!

WunderBlog® & News

Nearby

Air Quality

  Air Quality AQ Index Pollutant
Not available.

Snow Depth

Station Depth Elevation

Earthquake Activity

City Distance Mag. Time & Date
Minimum magnitude displayed is 2.5.

Coastal Water Temperatures

Place Temperature

Stations

Nearby Weather Stations

Station Location Temp. Windchill Dew Point Humidity Wind Precip. Elev Updated Type
                   

Watches & Warnings

There are currently no watches in effect.